sensor_id;sensor_type;location;lat;lon;timestamp;P1;durP1;ratioP1;P2;durP2;ratioP2
66923;SDS011;53835;47.984;7.844;2022-10-26T00:00:36;3.37;;;1.80;;
66923;SDS011;53835;47.984;7.844;2022-10-26T00:03:03;6.90;;;2.00;;
66923;SDS011;53835;47.984;7.844;2022-10-26T00:05:33;1.67;;;1.57;;
66923;SDS011;53835;47.984;7.844;2022-10-26T00:08:01;6.63;;;1.67;;
66923;SDS011;53835;47.984;7.844;2022-10-26T00:10:28;4.90;;;2.03;;
66923;SDS011;53835;47.984;7.844;2022-10-26T00:12:55;3.77;;;1.67;;
66923;SDS011;53835;47.984;7.844;2022-10-26T00:15:22;5.13;;;1.57;;
66923;SDS011;53835;47.984;7.844;2022-10-26T00:17:50;6.33;;;1.77;;
66923;SDS011;53835;47.984;7.844;2022-10-26T00:20:17;1.53;;;1.40;;
66923;SDS011;53835;47.984;7.844;2022-10-26T00:22:44;5.20;;;1.60;;
66923;SDS011;53835;47.984;7.844;2022-10-26T00:25:12;3.47;;;1.70;;
66923;SDS011;53835;47.984;7.844;2022-10-26T00:27:39;3.37;;;1.90;;
66923;SDS011;53835;47.984;7.844;2022-10-26T00:30:07;5.23;;;1.70;;
66923;SDS011;53835;47.984;7.844;2022-10-26T00:32:34;3.97;;;1.40;;
66923;SDS011;53835;47.984;7.844;2022-10-26T00:35:01;4.33;;;1.60;;
66923;SDS011;53835;47.984;7.844;2022-10-26T00:37:28;2.30;;;1.40;;
66923;SDS011;53835;47.984;7.844;2022-10-26T00:39:56;4.70;;;1.30;;
66923;SDS011;53835;47.984;7.844;2022-10-26T00:42:23;2.33;;;1.30;;
66923;SDS011;53835;47.984;7.844;2022-10-26T00:44:54;5.80;;;1.60;;
66923;SDS011;53835;47.984;7.844;2022-10-26T00:47:32;2.77;;;1.57;;
66923;SDS011;53835;47.984;7.844;2022-10-26T00:50:00;4.17;;;1.43;;
66923;SDS011;53835;47.984;7.844;2022-10-26T00:52:27;3.13;;;1.50;;
66923;SDS011;53835;47.984;7.844;2022-10-26T00:54:55;2.57;;;1.30;;
66923;SDS011;53835;47.984;7.844;2022-10-26T00:57:23;4.53;;;1.30;;
66923;SDS011;53835;47.984;7.844;2022-10-26T00:59:50;3.40;;;1.40;;
66923;SDS011;53835;47.984;7.844;2022-10-26T01:02:19;3.57;;;1.50;;
66923;SDS011;53835;47.984;7.844;2022-10-26T01:04:47;5.47;;;1.90;;
66923;SDS011;53835;47.984;7.844;2022-10-26T01:07:14;2.43;;;1.20;;
66923;SDS011;53835;47.984;7.844;2022-10-26T01:09:42;9.97;;;1.70;;
66923;SDS011;53835;47.984;7.844;2022-10-26T01:12:09;6.17;;;1.80;;
66923;SDS011;53835;47.984;7.844;2022-10-26T01:14:36;6.13;;;1.80;;
66923;SDS011;53835;47.984;7.844;2022-10-26T01:17:14;3.23;;;1.13;;
66923;SDS011;53835;47.984;7.844;2022-10-26T01:22:19;3.40;;;1.50;;
66923;SDS011;53835;47.984;7.844;2022-10-26T01:24:57;10.17;;;1.77;;
66923;SDS011;53835;47.984;7.844;2022-10-26T01:27:33;10.60;;;1.63;;
66923;SDS011;53835;47.984;7.844;2022-10-26T01:32:37;5.63;;;1.33;;
66923;SDS011;53835;47.984;7.844;2022-10-26T01:37:33;2.93;;;1.30;;
66923;SDS011;53835;47.984;7.844;2022-10-26T01:40:14;5.37;;;1.30;;
66923;SDS011;53835;47.984;7.844;2022-10-26T01:42:36;4.10;;;1.77;;
66923;SDS011;53835;47.984;7.844;2022-10-26T01:45:06;3.67;;;1.30;;
66923;SDS011;53835;47.984;7.844;2022-10-26T01:47:33;3.23;;;1.33;;
66923;SDS011;53835;47.984;7.844;2022-10-26T01:50:02;2.70;;;1.40;;
66923;SDS011;53835;47.984;7.844;2022-10-26T01:52:30;4.20;;;1.37;;
66923;SDS011;53835;47.984;7.844;2022-10-26T01:55:03;4.13;;;1.70;;
66923;SDS011;53835;47.984;7.844;2022-10-26T01:57:30;5.60;;;1.53;;
66923;SDS011;53835;47.984;7.844;2022-10-26T02:12:56;3.13;;;1.50;;
66923;SDS011;53835;47.984;7.844;2022-10-26T02:15:21;3.47;;;1.53;;
66923;SDS011;53835;47.984;7.844;2022-10-26T02:17:57;4.50;;;1.87;;
66923;SDS011;53835;47.984;7.844;2022-10-26T02:20:25;3.73;;;1.70;;
66923;SDS011;53835;47.984;7.844;2022-10-26T02:22:54;5.07;;;1.87;;
66923;SDS011;53835;47.984;7.844;2022-10-26T02:25:26;2.33;;;1.60;;
66923;SDS011;53835;47.984;7.844;2022-10-26T02:27:59;4.03;;;1.60;;
66923;SDS011;53835;47.984;7.844;2022-10-26T02:30:22;1.90;;;1.70;;
66923;SDS011;53835;47.984;7.844;2022-10-26T02:32:50;2.77;;;1.70;;
66923;SDS011;53835;47.984;7.844;2022-10-26T02:35:19;3.73;;;1.50;;
66923;SDS011;53835;47.984;7.844;2022-10-26T02:37:47;2.87;;;1.70;;
66923;SDS011;53835;47.984;7.844;2022-10-26T02:40:15;3.50;;;1.73;;
66923;SDS011;53835;47.984;7.844;2022-10-26T02:42:44;5.93;;;1.87;;
66923;SDS011;53835;47.984;7.844;2022-10-26T02:45:13;10.13;;;1.70;;
66923;SDS011;53835;47.984;7.844;2022-10-26T02:47:40;5.93;;;1.70;;
66923;SDS011;53835;47.984;7.844;2022-10-26T02:50:08;3.07;;;1.63;;
66923;SDS011;53835;47.984;7.844;2022-10-26T02:52:47;2.57;;;1.80;;
66923;SDS011;53835;47.984;7.844;2022-10-26T02:58:03;3.90;;;1.90;;
66923;SDS011;53835;47.984;7.844;2022-10-26T03:00:30;6.63;;;1.70;;
66923;SDS011;53835;47.984;7.844;2022-10-26T03:02:58;5.73;;;1.87;;
66923;SDS011;53835;47.984;7.844;2022-10-26T03:05:28;4.47;;;1.93;;
66923;SDS011;53835;47.984;7.844;2022-10-26T03:07:58;3.53;;;1.80;;
66923;SDS011;53835;47.984;7.844;2022-10-26T03:10:25;4.00;;;1.93;;
66923;SDS011;53835;47.984;7.844;2022-10-26T03:12:53;5.00;;;1.73;;
66923;SDS011;53835;47.984;7.844;2022-10-26T03:15:20;4.17;;;1.97;;
66923;SDS011;53835;47.984;7.844;2022-10-26T03:17:47;4.43;;;2.03;;
66923;SDS011;53835;47.984;7.844;2022-10-26T03:20:14;5.17;;;2.10;;
66923;SDS011;53835;47.984;7.844;2022-10-26T03:22:42;4.00;;;2.20;;
66923;SDS011;53835;47.984;7.844;2022-10-26T03:25:09;4.63;;;1.50;;
66923;SDS011;53835;47.984;7.844;2022-10-26T03:27:36;7.60;;;1.93;;
66923;SDS011;53835;47.984;7.844;2022-10-26T03:30:04;4.77;;;1.60;;
66923;SDS011;53835;47.984;7.844;2022-10-26T03:32:31;3.77;;;1.90;;
66923;SDS011;53835;47.984;7.844;2022-10-26T03:34:58;3.37;;;1.80;;
66923;SDS011;53835;47.984;7.844;2022-10-26T03:37:26;2.90;;;1.90;;
66923;SDS011;53835;47.984;7.844;2022-10-26T03:39:53;4.33;;;1.87;;
66923;SDS011;53835;47.984;7.844;2022-10-26T03:42:20;4.63;;;2.50;;
66923;SDS011;53835;47.984;7.844;2022-10-26T03:44:48;3.43;;;1.90;;
66923;SDS011;53835;47.984;7.844;2022-10-26T03:47:15;6.97;;;2.00;;
66923;SDS011;53835;47.984;7.844;2022-10-26T03:49:42;2.60;;;1.67;;
66923;SDS011;53835;47.984;7.844;2022-10-26T03:52:09;8.13;;;2.60;;
66923;SDS011;53835;47.984;7.844;2022-10-26T03:54:37;6.93;;;1.93;;
66923;SDS011;53835;47.984;7.844;2022-10-26T03:57:04;2.77;;;1.90;;
66923;SDS011;53835;47.984;7.844;2022-10-26T03:59:31;5.63;;;2.10;;
66923;SDS011;53835;47.984;7.844;2022-10-26T04:01:58;2.13;;;1.67;;
66923;SDS011;53835;47.984;7.844;2022-10-26T04:04:26;7.90;;;2.00;;
66923;SDS011;53835;47.984;7.844;2022-10-26T04:06:53;6.17;;;2.10;;
66923;SDS011;53835;47.984;7.844;2022-10-26T04:09:20;3.57;;;2.00;;
66923;SDS011;53835;47.984;7.844;2022-10-26T04:11:47;6.77;;;2.03;;
66923;SDS011;53835;47.984;7.844;2022-10-26T04:14:15;5.63;;;2.00;;
66923;SDS011;53835;47.984;7.844;2022-10-26T04:16:42;3.43;;;2.20;;
66923;SDS011;53835;47.984;7.844;2022-10-26T04:19:09;4.03;;;2.00;;
66923;SDS011;53835;47.984;7.844;2022-10-26T04:21:36;5.53;;;2.20;;
66923;SDS011;53835;47.984;7.844;2022-10-26T04:24:04;8.30;;;2.37;;
66923;SDS011;53835;47.984;7.844;2022-10-26T04:26:31;5.10;;;2.50;;
66923;SDS011;53835;47.984;7.844;2022-10-26T04:28:58;8.33;;;2.60;;
66923;SDS011;53835;47.984;7.844;2022-10-26T04:31:26;3.10;;;1.80;;
66923;SDS011;53835;47.984;7.844;2022-10-26T04:33:53;3.70;;;1.90;;
66923;SDS011;53835;47.984;7.844;2022-10-26T04:36:20;4.33;;;2.17;;
66923;SDS011;53835;47.984;7.844;2022-10-26T04:38:48;4.87;;;2.10;;
66923;SDS011;53835;47.984;7.844;2022-10-26T04:41:15;3.63;;;2.03;;
66923;SDS011;53835;47.984;7.844;2022-10-26T04:43:42;4.13;;;2.13;;
66923;SDS011;53835;47.984;7.844;2022-10-26T04:46:10;7.17;;;2.30;;
66923;SDS011;53835;47.984;7.844;2022-10-26T04:48:39;5.40;;;2.40;;
66923;SDS011;53835;47.984;7.844;2022-10-26T04:51:06;7.00;;;2.30;;
66923;SDS011;53835;47.984;7.844;2022-10-26T04:53:33;4.30;;;2.27;;
66923;SDS011;53835;47.984;7.844;2022-10-26T04:56:01;5.47;;;2.30;;
66923;SDS011;53835;47.984;7.844;2022-10-26T04:58:28;4.13;;;2.10;;
66923;SDS011;53835;47.984;7.844;2022-10-26T05:00:55;4.97;;;2.17;;
66923;SDS011;53835;47.984;7.844;2022-10-26T05:03:22;6.50;;;2.50;;
66923;SDS011;53835;47.984;7.844;2022-10-26T05:05:50;6.70;;;2.80;;
66923;SDS011;53835;47.984;7.844;2022-10-26T05:08:17;3.93;;;2.30;;
66923;SDS011;53835;47.984;7.844;2022-10-26T05:10:48;5.50;;;2.20;;
66923;SDS011;53835;47.984;7.844;2022-10-26T05:13:15;4.30;;;2.17;;
66923;SDS011;53835;47.984;7.844;2022-10-26T05:15:42;4.37;;;2.40;;
66923;SDS011;53835;47.984;7.844;2022-10-26T05:18:09;3.53;;;2.47;;
66923;SDS011;53835;47.984;7.844;2022-10-26T05:20:37;7.27;;;2.23;;
66923;SDS011;53835;47.984;7.844;2022-10-26T05:23:09;3.87;;;2.20;;
66923;SDS011;53835;47.984;7.844;2022-10-26T05:25:34;7.90;;;2.80;;
66923;SDS011;53835;47.984;7.844;2022-10-26T05:28:02;8.20;;;2.63;;
66923;SDS011;53835;47.984;7.844;2022-10-26T05:30:30;11.33;;;3.00;;
66923;SDS011;53835;47.984;7.844;2022-10-26T05:33:01;8.27;;;2.40;;
66923;SDS011;53835;47.984;7.844;2022-10-26T05:35:29;7.77;;;3.00;;
66923;SDS011;53835;47.984;7.844;2022-10-26T05:37:56;7.10;;;2.63;;
66923;SDS011;53835;47.984;7.844;2022-10-26T05:40:24;5.60;;;2.70;;
66923;SDS011;53835;47.984;7.844;2022-10-26T05:42:51;4.43;;;2.33;;
66923;SDS011;53835;47.984;7.844;2022-10-26T05:45:19;4.30;;;2.47;;
66923;SDS011;53835;47.984;7.844;2022-10-26T05:47:46;5.83;;;2.80;;
66923;SDS011;53835;47.984;7.844;2022-10-26T05:50:14;7.97;;;2.60;;
66923;SDS011;53835;47.984;7.844;2022-10-26T05:52:42;5.50;;;2.80;;
66923;SDS011;53835;47.984;7.844;2022-10-26T05:55:10;4.60;;;2.27;;
66923;SDS011;53835;47.984;7.844;2022-10-26T05:57:38;11.13;;;2.87;;
66923;SDS011;53835;47.984;7.844;2022-10-26T06:00:07;7.10;;;2.93;;
66923;SDS011;53835;47.984;7.844;2022-10-26T06:05:06;6.93;;;3.10;;
66923;SDS011;53835;47.984;7.844;2022-10-26T06:07:36;7.93;;;3.30;;
66923;SDS011;53835;47.984;7.844;2022-10-26T06:10:03;12.60;;;3.20;;
66923;SDS011;53835;47.984;7.844;2022-10-26T06:12:30;7.33;;;3.00;;
66923;SDS011;53835;47.984;7.844;2022-10-26T06:14:58;9.47;;;3.80;;
66923;SDS011;53835;47.984;7.844;2022-10-26T06:20:01;6.10;;;2.93;;
66923;SDS011;53835;47.984;7.844;2022-10-26T06:30:10;7.20;;;2.90;;
66923;SDS011;53835;47.984;7.844;2022-10-26T06:32:38;9.57;;;3.17;;
66923;SDS011;53835;47.984;7.844;2022-10-26T06:37:38;8.50;;;3.23;;
66923;SDS011;53835;47.984;7.844;2022-10-26T06:40:05;9.17;;;3.47;;
66923;SDS011;53835;47.984;7.844;2022-10-26T06:42:33;9.97;;;3.30;;
66923;SDS011;53835;47.984;7.844;2022-10-26T06:45:00;7.53;;;3.13;;
66923;SDS011;53835;47.984;7.844;2022-10-26T06:50:06;7.37;;;3.33;;
66923;SDS011;53835;47.984;7.844;2022-10-26T06:52:39;8.40;;;3.10;;
66923;SDS011;53835;47.984;7.844;2022-10-26T06:55:00;6.20;;;3.10;;
66923;SDS011;53835;47.984;7.844;2022-10-26T06:57:30;5.73;;;3.23;;
66923;SDS011;53835;47.984;7.844;2022-10-26T07:00:02;10.03;;;3.90;;
66923;SDS011;53835;47.984;7.844;2022-10-26T07:02:28;10.57;;;3.27;;
66923;SDS011;53835;47.984;7.844;2022-10-26T07:04:55;11.50;;;3.60;;
66923;SDS011;53835;47.984;7.844;2022-10-26T07:07:24;7.03;;;3.53;;
66923;SDS011;53835;47.984;7.844;2022-10-26T07:09:52;3.47;;;2.90;;
66923;SDS011;53835;47.984;7.844;2022-10-26T07:12:19;7.53;;;3.13;;
66923;SDS011;53835;47.984;7.844;2022-10-26T07:14:46;8.93;;;3.23;;
66923;SDS011;53835;47.984;7.844;2022-10-26T07:17:14;10.20;;;2.97;;
66923;SDS011;53835;47.984;7.844;2022-10-26T07:19:42;7.40;;;2.87;;
66923;SDS011;53835;47.984;7.844;2022-10-26T07:22:10;8.70;;;2.93;;
66923;SDS011;53835;47.984;7.844;2022-10-26T07:24:38;7.30;;;3.33;;
66923;SDS011;53835;47.984;7.844;2022-10-26T07:27:06;8.10;;;3.40;;
66923;SDS011;53835;47.984;7.844;2022-10-26T07:29:34;7.40;;;2.93;;
66923;SDS011;53835;47.984;7.844;2022-10-26T07:32:01;7.30;;;3.20;;
66923;SDS011;53835;47.984;7.844;2022-10-26T07:34:28;9.83;;;3.23;;
66923;SDS011;53835;47.984;7.844;2022-10-26T07:36:57;6.37;;;3.17;;
66923;SDS011;53835;47.984;7.844;2022-10-26T07:39:24;9.80;;;3.43;;
66923;SDS011;53835;47.984;7.844;2022-10-26T07:41:52;14.30;;;3.60;;
66923;SDS011;53835;47.984;7.844;2022-10-26T07:44:19;6.93;;;3.13;;
66923;SDS011;53835;47.984;7.844;2022-10-26T07:46:46;7.67;;;3.30;;
66923;SDS011;53835;47.984;7.844;2022-10-26T07:49:13;7.63;;;3.10;;
66923;SDS011;53835;47.984;7.844;2022-10-26T07:51:41;7.33;;;3.03;;
66923;SDS011;53835;47.984;7.844;2022-10-26T07:54:08;10.03;;;3.87;;
66923;SDS011;53835;47.984;7.844;2022-10-26T07:56:35;10.70;;;3.10;;
66923;SDS011;53835;47.984;7.844;2022-10-26T07:59:03;7.17;;;3.20;;
66923;SDS011;53835;47.984;7.844;2022-10-26T08:01:30;10.83;;;3.10;;
66923;SDS011;53835;47.984;7.844;2022-10-26T08:03:57;14.03;;;3.30;;
66923;SDS011;53835;47.984;7.844;2022-10-26T08:06:25;9.93;;;3.40;;
66923;SDS011;53835;47.984;7.844;2022-10-26T08:08:52;21.60;;;3.80;;
66923;SDS011;53835;47.984;7.844;2022-10-26T08:11:19;10.07;;;3.07;;
66923;SDS011;53835;47.984;7.844;2022-10-26T08:13:46;9.57;;;3.23;;
66923;SDS011;53835;47.984;7.844;2022-10-26T08:16:13;5.83;;;2.98;;
66923;SDS011;53835;47.984;7.844;2022-10-26T08:18:41;14.63;;;4.03;;
66923;SDS011;53835;47.984;7.844;2022-10-26T08:21:09;12.77;;;3.80;;
66923;SDS011;53835;47.984;7.844;2022-10-26T08:23:40;7.78;;;2.98;;
66923;SDS011;53835;47.984;7.844;2022-10-26T08:26:08;17.23;;;3.45;;
66923;SDS011;53835;47.984;7.844;2022-10-26T08:28:38;12.78;;;3.75;;
66923;SDS011;53835;47.984;7.844;2022-10-26T08:31:06;9.80;;;3.45;;
66923;SDS011;53835;47.984;7.844;2022-10-26T08:33:33;9.35;;;3.50;;
66923;SDS011;53835;47.984;7.844;2022-10-26T08:36:01;7.25;;;2.58;;
66923;SDS011;53835;47.984;7.844;2022-10-26T08:38:28;8.88;;;3.27;;
66923;SDS011;53835;47.984;7.844;2022-10-26T08:40:56;8.63;;;3.27;;
66923;SDS011;53835;47.984;7.844;2022-10-26T08:46:11;15.80;;;3.37;;
66923;SDS011;53835;47.984;7.844;2022-10-26T08:48:41;15.35;;;3.37;;
66923;SDS011;53835;47.984;7.844;2022-10-26T08:51:12;11.08;;;3.25;;
66923;SDS011;53835;47.984;7.844;2022-10-26T08:53:46;10.82;;;3.50;;
66923;SDS011;53835;47.984;7.844;2022-10-26T08:56:14;12.90;;;3.60;;
66923;SDS011;53835;47.984;7.844;2022-10-26T08:58:38;14.55;;;3.75;;
66923;SDS011;53835;47.984;7.844;2022-10-26T09:01:07;8.87;;;2.77;;
66923;SDS011;53835;47.984;7.844;2022-10-26T09:03:34;10.20;;;3.42;;
66923;SDS011;53835;47.984;7.844;2022-10-26T09:08:39;14.33;;;3.17;;
66923;SDS011;53835;47.984;7.844;2022-10-26T09:13:58;16.32;;;3.62;;
66923;SDS011;53835;47.984;7.844;2022-10-26T09:24:05;14.23;;;3.50;;
66923;SDS011;53835;47.984;7.844;2022-10-26T09:29:11;14.25;;;3.65;;
66923;SDS011;53835;47.984;7.844;2022-10-26T09:31:40;12.65;;;3.33;;
66923;SDS011;53835;47.984;7.844;2022-10-26T09:34:11;10.78;;;3.37;;
66923;SDS011;53835;47.984;7.844;2022-10-26T09:36:37;7.58;;;2.95;;
66923;SDS011;53835;47.984;7.844;2022-10-26T09:39:27;11.22;;;3.02;;
66923;SDS011;53835;47.984;7.844;2022-10-26T09:41:55;9.38;;;3.00;;
66923;SDS011;53835;47.984;7.844;2022-10-26T09:44:41;5.78;;;2.80;;
66923;SDS011;53835;47.984;7.844;2022-10-26T09:49:46;11.10;;;3.00;;
66923;SDS011;53835;47.984;7.844;2022-10-26T09:52:15;8.00;;;2.75;;
66923;SDS011;53835;47.984;7.844;2022-10-26T09:54:42;12.53;;;2.70;;
66923;SDS011;53835;47.984;7.844;2022-10-26T09:57:11;9.00;;;2.83;;
66923;SDS011;53835;47.984;7.844;2022-10-26T09:59:39;6.75;;;2.67;;
66923;SDS011;53835;47.984;7.844;2022-10-26T10:04:52;8.68;;;3.00;;
66923;SDS011;53835;47.984;7.844;2022-10-26T10:07:19;7.72;;;2.62;;
66923;SDS011;53835;47.984;7.844;2022-10-26T10:09:55;9.28;;;2.80;;
66923;SDS011;53835;47.984;7.844;2022-10-26T10:12:18;7.47;;;2.60;;
66923;SDS011;53835;47.984;7.844;2022-10-26T10:14:56;10.05;;;3.00;;
66923;SDS011;53835;47.984;7.844;2022-10-26T10:17:23;12.10;;;2.98;;
66923;SDS011;53835;47.984;7.844;2022-10-26T10:19:51;14.78;;;3.00;;
66923;SDS011;53835;47.984;7.844;2022-10-26T10:22:19;7.53;;;2.77;;
66923;SDS011;53835;47.984;7.844;2022-10-26T10:27:21;12.98;;;3.00;;
66923;SDS011;53835;47.984;7.844;2022-10-26T10:29:49;10.75;;;3.10;;
66923;SDS011;53835;47.984;7.844;2022-10-26T10:32:26;14.75;;;3.20;;
66923;SDS011;53835;47.984;7.844;2022-10-26T10:34:54;12.20;;;3.27;;
66923;SDS011;53835;47.984;7.844;2022-10-26T10:37:28;11.35;;;3.05;;
66923;SDS011;53835;47.984;7.844;2022-10-26T10:40:00;13.25;;;3.40;;
66923;SDS011;53835;47.984;7.844;2022-10-26T10:42:26;12.45;;;3.30;;
66923;SDS011;53835;47.984;7.844;2022-10-26T10:44:53;19.00;;;4.00;;
66923;SDS011;53835;47.984;7.844;2022-10-26T10:47:22;8.98;;;3.00;;
66923;SDS011;53835;47.984;7.844;2022-10-26T10:49:57;12.82;;;3.27;;
66923;SDS011;53835;47.984;7.844;2022-10-26T10:52:27;10.95;;;3.47;;
66923;SDS011;53835;47.984;7.844;2022-10-26T10:54:52;11.73;;;3.47;;
66923;SDS011;53835;47.984;7.844;2022-10-26T10:57:28;16.45;;;3.50;;
66923;SDS011;53835;47.984;7.844;2022-10-26T11:00:04;12.75;;;3.40;;
66923;SDS011;53835;47.984;7.844;2022-10-26T11:02:38;12.40;;;3.70;;
66923;SDS011;53835;47.984;7.844;2022-10-26T11:07:47;11.48;;;3.12;;
66923;SDS011;53835;47.984;7.844;2022-10-26T11:10:01;12.70;;;3.33;;
66923;SDS011;53835;47.984;7.844;2022-10-26T11:12:30;12.75;;;3.17;;
66923;SDS011;53835;47.984;7.844;2022-10-26T11:15:04;12.65;;;3.80;;
66923;SDS011;53835;47.984;7.844;2022-10-26T11:17:32;14.25;;;3.95;;
66923;SDS011;53835;47.984;7.844;2022-10-26T11:20:03;11.53;;;3.35;;
66923;SDS011;53835;47.984;7.844;2022-10-26T11:22:34;12.28;;;3.37;;
66923;SDS011;53835;47.984;7.844;2022-10-26T11:25:03;15.10;;;3.60;;
66923;SDS011;53835;47.984;7.844;2022-10-26T11:27:49;12.10;;;3.60;;
66923;SDS011;53835;47.984;7.844;2022-10-26T11:30:17;13.32;;;3.33;;
66923;SDS011;53835;47.984;7.844;2022-10-26T11:32:49;16.95;;;3.25;;
66923;SDS011;53835;47.984;7.844;2022-10-26T11:38:00;11.12;;;3.37;;
66923;SDS011;53835;47.984;7.844;2022-10-26T11:40:41;12.50;;;3.40;;
66923;SDS011;53835;47.984;7.844;2022-10-26T11:45:38;11.75;;;3.85;;
66923;SDS011;53835;47.984;7.844;2022-10-26T11:48:20;8.58;;;3.45;;
66923;SDS011;53835;47.984;7.844;2022-10-26T11:50:49;12.82;;;3.30;;
66923;SDS011;53835;47.984;7.844;2022-10-26T11:53:18;10.60;;;3.20;;
66923;SDS011;53835;47.984;7.844;2022-10-26T11:55:50;10.60;;;3.00;;
66923;SDS011;53835;47.984;7.844;2022-10-26T11:58:17;13.03;;;3.35;;
66923;SDS011;53835;47.984;7.844;2022-10-26T12:00:50;12.65;;;3.27;;
66923;SDS011;53835;47.984;7.844;2022-10-26T12:03:22;12.58;;;3.10;;
66923;SDS011;53835;47.984;7.844;2022-10-26T12:05:49;12.03;;;3.35;;
66923;SDS011;53835;47.984;7.844;2022-10-26T12:08:23;13.15;;;3.35;;
66923;SDS011;53835;47.984;7.844;2022-10-26T12:13:46;8.58;;;3.20;;
66923;SDS011;53835;47.984;7.844;2022-10-26T12:18:55;10.48;;;3.30;;
66923;SDS011;53835;47.984;7.844;2022-10-26T12:21:17;10.48;;;3.30;;
66923;SDS011;53835;47.984;7.844;2022-10-26T12:23:59;8.98;;;3.70;;
66923;SDS011;53835;47.984;7.844;2022-10-26T12:33:59;11.28;;;3.05;;
66923;SDS011;53835;47.984;7.844;2022-10-26T12:39:30;11.18;;;3.20;;
66923;SDS011;53835;47.984;7.844;2022-10-26T12:44:37;10.70;;;3.10;;
66923;SDS011;53835;47.984;7.844;2022-10-26T12:47:08;9.88;;;3.33;;
66923;SDS011;53835;47.984;7.844;2022-10-26T12:52:25;10.32;;;3.33;;
66923;SDS011;53835;47.984;7.844;2022-10-26T12:55:13;9.75;;;3.08;;
66923;SDS011;53835;47.984;7.844;2022-10-26T12:57:33;9.35;;;2.95;;
66923;SDS011;53835;47.984;7.844;2022-10-26T13:00:00;9.53;;;3.27;;
66923;SDS011;53835;47.984;7.844;2022-10-26T13:08:04;9.63;;;3.00;;
66923;SDS011;53835;47.984;7.844;2022-10-26T13:10:28;12.30;;;3.08;;
66923;SDS011;53835;47.984;7.844;2022-10-26T13:12:56;8.90;;;2.95;;
66923;SDS011;53835;47.984;7.844;2022-10-26T13:15:28;10.10;;;3.20;;
66923;SDS011;53835;47.984;7.844;2022-10-26T13:18:00;9.00;;;2.80;;
66923;SDS011;53835;47.984;7.844;2022-10-26T13:20:28;9.18;;;2.90;;
66923;SDS011;53835;47.984;7.844;2022-10-26T13:22:56;10.65;;;3.52;;
66923;SDS011;53835;47.984;7.844;2022-10-26T13:25:24;12.58;;;3.10;;
66923;SDS011;53835;47.984;7.844;2022-10-26T13:27:57;10.75;;;3.10;;
66923;SDS011;53835;47.984;7.844;2022-10-26T13:30:40;11.73;;;3.45;;
66923;SDS011;53835;47.984;7.844;2022-10-26T13:32:53;10.15;;;3.10;;
66923;SDS011;53835;47.984;7.844;2022-10-26T13:35:22;8.55;;;3.10;;
66923;SDS011;53835;47.984;7.844;2022-10-26T13:37:50;10.40;;;3.02;;
66923;SDS011;53835;47.984;7.844;2022-10-26T13:40:26;9.70;;;2.83;;
66923;SDS011;53835;47.984;7.844;2022-10-26T13:42:52;12.65;;;3.20;;
66923;SDS011;53835;47.984;7.844;2022-10-26T13:45:20;8.23;;;2.95;;
66923;SDS011;53835;47.984;7.844;2022-10-26T13:47:53;8.70;;;2.92;;
66923;SDS011;53835;47.984;7.844;2022-10-26T13:50:23;9.68;;;3.00;;
66923;SDS011;53835;47.984;7.844;2022-10-26T13:52:56;8.83;;;3.08;;
66923;SDS011;53835;47.984;7.844;2022-10-26T13:55:28;12.85;;;3.27;;
66923;SDS011;53835;47.984;7.844;2022-10-26T13:58:43;10.48;;;3.15;;
66923;SDS011;53835;47.984;7.844;2022-10-26T14:00:24;13.00;;;3.27;;
66923;SDS011;53835;47.984;7.844;2022-10-26T14:02:51;6.28;;;2.92;;
66923;SDS011;53835;47.984;7.844;2022-10-26T14:05:19;10.78;;;3.62;;
66923;SDS011;53835;47.984;7.844;2022-10-26T14:07:57;13.80;;;3.85;;
66923;SDS011;53835;47.984;7.844;2022-10-26T14:13:06;11.00;;;3.37;;
66923;SDS011;53835;47.984;7.844;2022-10-26T14:15:34;8.63;;;3.70;;
66923;SDS011;53835;47.984;7.844;2022-10-26T14:18:02;9.90;;;3.08;;
66923;SDS011;53835;47.984;7.844;2022-10-26T14:20:30;11.68;;;3.25;;
66923;SDS011;53835;47.984;7.844;2022-10-26T14:22:58;8.95;;;2.98;;
66923;SDS011;53835;47.984;7.844;2022-10-26T14:25:26;8.98;;;2.77;;
66923;SDS011;53835;47.984;7.844;2022-10-26T14:27:54;9.48;;;3.12;;
66923;SDS011;53835;47.984;7.844;2022-10-26T14:30:27;9.48;;;3.08;;
66923;SDS011;53835;47.984;7.844;2022-10-26T14:32:53;10.48;;;3.08;;
66923;SDS011;53835;47.984;7.844;2022-10-26T14:35:22;13.80;;;4.67;;
66923;SDS011;53835;47.984;7.844;2022-10-26T14:37:51;10.65;;;3.40;;
66923;SDS011;53835;47.984;7.844;2022-10-26T14:40:19;10.88;;;3.15;;
66923;SDS011;53835;47.984;7.844;2022-10-26T14:42:48;9.70;;;3.12;;
66923;SDS011;53835;47.984;7.844;2022-10-26T14:48:01;12.23;;;3.30;;
66923;SDS011;53835;47.984;7.844;2022-10-26T14:50:29;9.03;;;2.98;;
66923;SDS011;53835;47.984;7.844;2022-10-26T14:53:02;8.45;;;3.10;;
66923;SDS011;53835;47.984;7.844;2022-10-26T14:55:30;7.75;;;3.05;;
66923;SDS011;53835;47.984;7.844;2022-10-26T14:58:44;12.73;;;2.98;;
66923;SDS011;53835;47.984;7.844;2022-10-26T15:00:27;12.10;;;3.42;;
66923;SDS011;53835;47.984;7.844;2022-10-26T15:02:55;11.53;;;3.05;;
66923;SDS011;53835;47.984;7.844;2022-10-26T15:07:53;9.68;;;3.40;;
66923;SDS011;53835;47.984;7.844;2022-10-26T15:13:25;11.53;;;3.62;;
66923;SDS011;53835;47.984;7.844;2022-10-26T15:15:53;9.15;;;3.02;;
66923;SDS011;53835;47.984;7.844;2022-10-26T15:18:25;11.73;;;3.08;;
66923;SDS011;53835;47.984;7.844;2022-10-26T15:20:53;7.25;;;3.00;;
66923;SDS011;53835;47.984;7.844;2022-10-26T15:23:21;12.15;;;3.77;;
66923;SDS011;53835;47.984;7.844;2022-10-26T15:25:59;13.98;;;2.92;;
66923;SDS011;53835;47.984;7.844;2022-10-26T15:28:22;7.10;;;3.45;;
66923;SDS011;53835;47.984;7.844;2022-10-26T15:33:33;10.43;;;3.27;;
66923;SDS011;53835;47.984;7.844;2022-10-26T15:38:36;10.93;;;3.30;;
66923;SDS011;53835;47.984;7.844;2022-10-26T15:41:03;20.27;;;3.35;;
66923;SDS011;53835;47.984;7.844;2022-10-26T15:43:31;9.63;;;3.70;;
66923;SDS011;53835;47.984;7.844;2022-10-26T15:45:58;13.08;;;3.10;;
66923;SDS011;53835;47.984;7.844;2022-10-26T15:48:26;9.48;;;2.80;;
66923;SDS011;53835;47.984;7.844;2022-10-26T15:50:54;12.98;;;3.30;;
66923;SDS011;53835;47.984;7.844;2022-10-26T15:53:25;10.10;;;3.47;;
66923;SDS011;53835;47.984;7.844;2022-10-26T15:55:56;8.48;;;3.12;;
66923;SDS011;53835;47.984;7.844;2022-10-26T15:58:25;10.15;;;3.40;;
66923;SDS011;53835;47.984;7.844;2022-10-26T16:00:52;9.58;;;3.05;;
66923;SDS011;53835;47.984;7.844;2022-10-26T16:03:23;5.30;;;2.90;;
66923;SDS011;53835;47.984;7.844;2022-10-26T16:05:55;10.65;;;3.22;;
66923;SDS011;53835;47.984;7.844;2022-10-26T16:08:21;15.83;;;3.47;;
66923;SDS011;53835;47.984;7.844;2022-10-26T16:10:48;12.37;;;3.30;;
66923;SDS011;53835;47.984;7.844;2022-10-26T16:13:17;14.45;;;3.25;;
66923;SDS011;53835;47.984;7.844;2022-10-26T16:15:44;10.25;;;3.47;;
66923;SDS011;53835;47.984;7.844;2022-10-26T16:18:11;10.35;;;3.22;;
66923;SDS011;53835;47.984;7.844;2022-10-26T16:20:39;8.05;;;3.25;;
66923;SDS011;53835;47.984;7.844;2022-10-26T16:23:06;7.12;;;2.65;;
66923;SDS011;53835;47.984;7.844;2022-10-26T16:25:38;12.13;;;3.27;;
66923;SDS011;53835;47.984;7.844;2022-10-26T16:28:02;14.23;;;3.37;;
66923;SDS011;53835;47.984;7.844;2022-10-26T16:30:30;10.85;;;3.30;;
66923;SDS011;53835;47.984;7.844;2022-10-26T16:32:57;6.72;;;2.90;;
66923;SDS011;53835;47.984;7.844;2022-10-26T16:35:24;9.38;;;3.27;;
66923;SDS011;53835;47.984;7.844;2022-10-26T16:37:51;8.80;;;3.10;;
66923;SDS011;53835;47.984;7.844;2022-10-26T16:40:19;11.50;;;3.87;;
66923;SDS011;53835;47.984;7.844;2022-10-26T16:42:46;9.00;;;3.25;;
66923;SDS011;53835;47.984;7.844;2022-10-26T16:45:13;7.20;;;2.85;;
66923;SDS011;53835;47.984;7.844;2022-10-26T16:47:41;6.53;;;2.87;;
66923;SDS011;53835;47.984;7.844;2022-10-26T16:50:09;10.25;;;3.35;;